createdAt,value
2023-04-17T00:01:22.184Z,11.93
2023-04-17T00:03:52.594Z,11.83
2023-04-17T00:06:21.194Z,12.63
2023-04-17T00:08:49.398Z,12.30
2023-04-17T00:11:18.876Z,11.50
2023-04-17T00:13:47.287Z,12.13
2023-04-17T00:16:15.574Z,12.53
2023-04-17T00:18:45.247Z,12.57
2023-04-17T00:21:13.473Z,12.67
2023-04-17T00:23:41.716Z,12.53
2023-04-17T00:26:09.920Z,12.70
2023-04-17T00:28:38.062Z,13.53
2023-04-17T00:31:06.425Z,12.63
2023-04-17T00:33:34.641Z,12.43
2023-04-17T00:36:04.207Z,12.73
2023-04-17T00:38:32.449Z,12.10
2023-04-17T00:41:00.821Z,12.53
2023-04-17T00:43:28.997Z,13.37
2023-04-17T00:45:57.288Z,13.70
2023-04-17T00:48:26.067Z,13.17
2023-04-17T00:50:55.345Z,13.33
2023-04-17T00:53:25.093Z,14.07
2023-04-17T00:55:53.733Z,13.50
2023-04-17T00:58:22.285Z,12.90
2023-04-17T01:00:50.820Z,13.57
2023-04-17T01:03:19.199Z,13.50
2023-04-17T01:05:51.141Z,13.23
2023-04-17T01:08:19.894Z,13.47
2023-04-17T01:10:49.511Z,12.53
2023-04-17T01:13:17.719Z,13.47
2023-04-17T01:15:47.082Z,13.53
2023-04-17T01:18:16.608Z,12.83
2023-04-17T01:20:44.769Z,13.00
2023-04-17T01:23:13.093Z,12.80
2023-04-17T01:25:42.756Z,13.07
2023-04-17T01:28:10.951Z,14.30
2023-04-17T01:30:39.187Z,13.10
2023-04-17T01:33:07.444Z,13.17
2023-04-17T01:35:35.676Z,13.33
2023-04-17T01:38:03.908Z,13.57
2023-04-17T01:40:32.111Z,13.87
2023-04-17T01:43:01.868Z,12.77
2023-04-17T01:45:30.057Z,13.70
2023-04-17T01:47:58.450Z,13.13
2023-04-17T01:50:27.649Z,13.40
2023-04-17T01:52:55.853Z,12.90
2023-04-17T01:55:24.146Z,14.30
2023-04-17T01:57:53.388Z,13.70
2023-04-17T02:00:23.734Z,13.73
2023-04-17T02:02:52.040Z,12.27
2023-04-17T02:05:20.910Z,12.67
2023-04-17T02:07:51.530Z,12.80
2023-04-17T02:10:19.796Z,12.10
2023-04-17T02:12:48.018Z,12.73
2023-04-17T02:15:16.266Z,12.87
2023-04-17T02:17:45.957Z,13.40
2023-04-17T02:20:14.473Z,13.17
2023-04-17T02:22:42.641Z,12.70
2023-04-17T02:25:10.993Z,14.20
2023-04-17T02:27:39.155Z,13.57
2023-04-17T02:30:08.874Z,14.03
2023-04-17T02:32:37.117Z,13.10
2023-04-17T02:35:07.840Z,13.43
2023-04-17T02:37:36.232Z,12.53
2023-04-17T02:40:06.893Z,12.43
2023-04-17T02:42:35.040Z,12.60
2023-04-17T02:45:04.172Z,13.53
2023-04-17T02:47:32.350Z,12.90
2023-04-17T02:50:00.615Z,13.57
2023-04-17T02:52:31.083Z,13.53
2023-04-17T02:54:59.595Z,13.30
2023-04-17T02:57:27.859Z,13.33
2023-04-17T02:59:56.047Z,13.43
2023-04-17T03:02:24.459Z,14.33
2023-04-17T03:04:53.350Z,12.37
2023-04-17T03:07:23.639Z,14.23
2023-04-17T03:09:54.080Z,13.43
2023-04-17T03:12:22.217Z,14.23
2023-04-17T03:14:50.431Z,13.93
2023-04-17T03:17:20.411Z,13.30
2023-04-17T03:19:48.692Z,13.27
2023-04-17T03:22:16.860Z,14.37
2023-04-17T03:24:45.081Z,13.20
2023-04-17T03:27:14.692Z,14.13
2023-04-17T03:29:42.890Z,13.27
2023-04-17T03:32:11.109Z,13.77
2023-04-17T03:34:39.349Z,12.97
2023-04-17T03:37:07.491Z,13.53
2023-04-17T03:39:35.698Z,14.13
2023-04-17T03:42:03.924Z,13.93
2023-04-17T03:44:33.463Z,14.37
2023-04-17T03:47:01.640Z,14.60
2023-04-17T03:49:29.800Z,13.30
2023-04-17T03:51:58.512Z,14.73
2023-04-17T03:54:27.421Z,14.67
2023-04-17T03:56:55.810Z,14.53
2023-04-17T03:59:23.996Z,13.70
2023-04-17T04:01:54.197Z,13.93
2023-04-17T04:04:22.841Z,14.33
2023-04-17T04:06:52.879Z,14.33
2023-04-17T04:09:21.361Z,14.47
2023-04-17T04:11:49.668Z,14.67
2023-04-17T04:14:18.223Z,15.77
2023-04-17T04:16:46.586Z,15.03
2023-04-17T04:19:16.376Z,15.67
2023-04-17T04:21:45.290Z,15.37
2023-04-17T04:24:14.530Z,14.67
2023-04-17T04:26:43.279Z,14.13
2023-04-17T04:29:12.163Z,16.73
2023-04-17T04:31:41.238Z,14.77
2023-04-17T04:34:10.394Z,15.53
2023-04-17T04:36:42.017Z,15.80
2023-04-17T04:39:10.853Z,17.23
2023-04-17T04:41:39.225Z,17.13
2023-04-17T04:44:07.525Z,16.87
2023-04-17T04:46:35.746Z,16.00
2023-04-17T04:49:03.907Z,16.27
2023-04-17T04:51:33.831Z,16.67
2023-04-17T04:54:03.619Z,16.83
2023-04-17T04:56:33.018Z,17.47
2023-04-17T04:59:01.375Z,17.60
2023-04-17T05:01:29.834Z,16.23
2023-04-17T05:03:58.359Z,15.23
2023-04-17T05:06:27.852Z,17.07
2023-04-17T05:08:56.024Z,17.50
2023-04-17T05:11:25.671Z,17.13
2023-04-17T05:13:53.825Z,17.17
2023-04-17T05:16:22.366Z,17.03
2023-04-17T05:18:50.597Z,17.90
2023-04-17T05:21:18.824Z,17.53
2023-04-17T05:23:47.007Z,17.87
2023-04-17T05:26:15.331Z,17.17
2023-04-17T05:28:45.822Z,17.63
2023-04-17T05:31:14.388Z,16.33
2023-04-17T05:33:42.666Z,17.43
2023-04-17T05:36:11.295Z,16.50
2023-04-17T05:38:39.447Z,16.53
2023-04-17T05:41:08.499Z,17.00
2023-04-17T05:43:36.747Z,15.07
2023-04-17T05:46:06.551Z,17.00
2023-04-17T05:48:34.779Z,17.27
2023-04-17T05:51:03.008Z,16.77
2023-04-17T05:53:31.802Z,16.30
2023-04-17T05:56:00.193Z,17.53
2023-04-17T05:58:28.354Z,17.07
2023-04-17T06:00:57.023Z,16.90
2023-04-17T06:03:27.210Z,17.47
2023-04-17T06:05:55.726Z,17.23
2023-04-17T06:08:23.918Z,18.33
2023-04-17T06:10:52.407Z,18.23
2023-04-17T06:13:20.576Z,17.63
2023-04-17T06:15:48.752Z,17.23
2023-04-17T06:18:17.638Z,17.97
2023-04-17T06:20:47.690Z,18.10
2023-04-17T06:23:15.922Z,17.93
2023-04-17T06:25:44.130Z,18.33
2023-04-17T06:28:12.252Z,18.73
2023-04-17T06:30:40.545Z,19.23
2023-04-17T06:33:08.790Z,20.23
2023-04-17T06:35:40.893Z,19.03
2023-04-17T06:38:10.560Z,17.90
2023-04-17T06:40:38.759Z,19.20
2023-04-17T06:43:06.957Z,17.67
2023-04-17T06:45:35.245Z,17.60
2023-04-17T06:48:03.514Z,16.93
2023-04-17T06:50:31.859Z,17.60
2023-04-17T06:53:00.101Z,15.73
2023-04-17T06:55:29.737Z,17.97
2023-04-17T06:57:58.065Z,18.17
2023-04-17T07:00:26.429Z,17.20
2023-04-17T07:02:54.811Z,16.57
2023-04-17T07:05:23.200Z,16.50
2023-04-17T07:07:51.423Z,16.60
2023-04-17T07:10:20.410Z,17.47
2023-04-17T07:12:50.173Z,16.97
2023-04-17T07:15:18.646Z,16.23
2023-04-17T07:17:47.177Z,17.27
2023-04-17T07:20:15.726Z,16.85
2023-04-17T07:22:44.152Z,17.35
2023-04-17T07:25:12.500Z,15.77
2023-04-17T07:27:40.812Z,16.55
2023-04-17T07:30:11.539Z,16.80
2023-04-17T07:32:39.783Z,19.03
2023-04-17T07:35:09.344Z,18.55
2023-04-17T07:37:37.722Z,14.88
2023-04-17T07:40:10.342Z,14.52
2023-04-17T07:42:38.822Z,14.20
2023-04-17T07:45:08.254Z,15.53
2023-04-17T07:47:38.187Z,15.43
2023-04-17T07:50:07.377Z,14.65
2023-04-17T07:52:35.654Z,14.30
2023-04-17T07:55:03.929Z,14.07
2023-04-17T07:57:33.016Z,14.60
2023-04-17T08:00:02.018Z,15.10
2023-04-17T08:02:30.591Z,14.27
2023-04-17T08:05:01.884Z,15.35
2023-04-17T08:07:30.233Z,15.65
2023-04-17T08:09:58.520Z,14.40
2023-04-17T08:12:26.850Z,13.88
2023-04-17T08:14:55.025Z,14.40
2023-04-17T08:17:26.193Z,14.05
2023-04-17T08:19:54.656Z,13.93
2023-04-17T08:22:24.514Z,14.05
2023-04-17T08:24:54.943Z,13.10
2023-04-17T08:27:23.153Z,13.35
2023-04-17T08:29:51.696Z,12.75
2023-04-17T08:32:19.891Z,13.65
2023-04-17T08:34:48.236Z,12.98
2023-04-17T08:37:16.391Z,13.30
2023-04-17T08:39:46.100Z,12.77
2023-04-17T08:42:18.575Z,12.65
2023-04-17T08:44:47.561Z,12.38
2023-04-17T08:47:20.132Z,12.30
2023-04-17T08:49:50.521Z,14.30
2023-04-17T08:52:19.173Z,13.63
2023-04-17T08:54:50.995Z,12.25
2023-04-17T08:57:19.595Z,11.45
2023-04-17T08:59:47.998Z,12.15
2023-04-17T09:02:16.452Z,12.38
2023-04-17T09:04:47.265Z,12.07
2023-04-17T09:07:16.718Z,11.98
2023-04-17T09:09:51.113Z,11.55
2023-04-17T09:12:19.864Z,12.05
2023-04-17T09:14:48.155Z,12.00
2023-04-17T09:17:18.355Z,11.68
2023-04-17T09:20:09.357Z,11.93
2023-04-17T09:22:39.302Z,12.35
2023-04-17T09:25:17.630Z,11.27
2023-04-17T09:27:46.142Z,12.38
2023-04-17T09:30:14.895Z,11.90
2023-04-17T09:32:43.268Z,12.05
2023-04-17T09:35:11.806Z,12.60
2023-04-17T09:37:50.673Z,12.32
2023-04-17T09:40:21.589Z,12.88
2023-04-17T09:43:00.550Z,12.82
2023-04-17T09:45:33.404Z,13.23
2023-04-17T09:48:05.477Z,11.98
2023-04-17T09:50:35.855Z,12.70
2023-04-17T09:53:07.120Z,11.32
2023-04-17T09:55:38.055Z,11.13
2023-04-17T09:58:08.568Z,10.20
2023-04-17T10:00:38.258Z,9.85
2023-04-17T10:03:08.374Z,10.23
2023-04-17T10:05:36.974Z,10.48
2023-04-17T10:08:06.047Z,11.30
2023-04-17T10:10:36.628Z,10.32
2023-04-17T10:13:08.862Z,10.68
2023-04-17T10:15:37.794Z,11.00
2023-04-17T10:18:21.212Z,10.35
2023-04-17T10:20:50.907Z,11.38
2023-04-17T10:23:33.531Z,10.55
2023-04-17T10:26:38.357Z,11.32
2023-04-17T10:29:08.831Z,11.38
2023-04-17T10:32:24.457Z,10.40
2023-04-17T10:34:54.276Z,10.40
2023-04-17T10:37:25.485Z,10.48
2023-04-17T10:40:02.493Z,11.60
2023-04-17T10:42:32.968Z,10.05
2023-04-17T10:45:05.491Z,11.75
2023-04-17T10:47:35.039Z,9.95
2023-04-17T10:50:05.326Z,10.13
2023-04-17T10:52:43.530Z,10.23
2023-04-17T10:55:16.299Z,9.68
2023-04-17T10:57:59.298Z,10.82
2023-04-17T11:00:38.512Z,10.20
2023-04-17T11:03:08.077Z,10.88
2023-04-17T11:05:36.781Z,10.15
2023-04-17T11:08:04.991Z,11.20
2023-04-17T11:10:37.276Z,11.05
2023-04-17T11:13:05.716Z,10.57
2023-04-17T11:15:36.445Z,10.30
2023-04-17T11:18:05.341Z,9.85
2023-04-17T11:20:34.739Z,10.35
2023-04-17T11:23:03.679Z,10.43
2023-04-17T11:25:34.107Z,10.18
2023-04-17T11:28:04.396Z,10.13
2023-04-17T11:30:34.635Z,10.35
2023-04-17T11:33:05.535Z,10.52
2023-04-17T11:35:35.053Z,11.48
2023-04-17T11:38:20.921Z,9.70
2023-04-17T11:40:52.453Z,15.32
2023-04-17T11:43:21.603Z,9.95
2023-04-17T11:45:52.242Z,9.73
2023-04-17T11:48:24.671Z,10.15
2023-04-17T11:50:56.967Z,9.55
2023-04-17T11:53:25.832Z,8.70
2023-04-17T11:56:12.228Z,8.55
2023-04-17T11:58:48.120Z,9.30
2023-04-17T12:01:16.355Z,8.93
2023-04-17T12:03:47.806Z,8.60
2023-04-17T12:06:17.343Z,8.50
2023-04-17T12:08:50.150Z,8.73
2023-04-17T12:11:25.119Z,8.50
2023-04-17T12:13:53.992Z,9.25
2023-04-17T12:16:24.661Z,9.35
2023-04-17T12:18:54.891Z,8.60
2023-04-17T12:21:23.991Z,8.23
2023-04-17T12:23:52.720Z,8.05
2023-04-17T12:26:20.927Z,7.65
2023-04-17T12:28:49.123Z,8.50
2023-04-17T12:31:17.356Z,8.88
2023-04-17T12:33:45.749Z,8.07
2023-04-17T12:36:15.474Z,6.72
2023-04-17T12:38:44.088Z,6.95
2023-04-17T12:41:12.290Z,7.68
2023-04-17T12:43:40.556Z,8.30
2023-04-17T12:46:11.022Z,7.30
2023-04-17T12:48:39.330Z,7.40
2023-04-17T12:51:07.626Z,8.05
2023-04-17T12:53:37.377Z,7.60
2023-04-17T12:56:06.109Z,7.82
2023-04-17T12:58:34.311Z,7.82
2023-04-17T13:01:02.523Z,8.80
2023-04-17T13:03:30.856Z,8.07
2023-04-17T13:05:59.355Z,7.97
2023-04-17T13:08:27.615Z,7.90
2023-04-17T13:10:57.558Z,7.20
2023-04-17T13:13:26.200Z,7.50
2023-04-17T13:15:54.437Z,7.43
2023-04-17T13:18:22.641Z,6.53
2023-04-17T13:20:50.999Z,6.70
2023-04-17T13:23:20.634Z,6.32
2023-04-17T13:25:49.396Z,6.35
2023-04-17T13:28:19.032Z,6.80
2023-04-17T13:30:47.299Z,7.55
2023-04-17T13:33:15.666Z,7.18
2023-04-17T13:35:44.009Z,7.20
2023-04-17T13:38:12.255Z,7.53
2023-04-17T13:40:41.075Z,7.18
2023-04-17T13:43:09.890Z,7.40
2023-04-17T13:45:39.564Z,6.78
2023-04-17T13:48:08.089Z,6.22
2023-04-17T13:50:36.386Z,6.88
2023-04-17T13:53:04.746Z,6.32
2023-04-17T13:55:33.229Z,6.10
2023-04-17T13:58:02.176Z,6.85
2023-04-17T14:00:30.504Z,6.70
2023-04-17T14:03:00.813Z,6.82
2023-04-17T14:05:29.295Z,7.15
2023-04-17T14:07:57.947Z,7.78
2023-04-17T14:10:26.343Z,8.95
2023-04-17T14:12:54.749Z,7.65
2023-04-17T14:15:23.006Z,8.55
2023-04-17T14:17:51.333Z,9.38
2023-04-17T14:20:21.219Z,9.60
2023-04-17T14:22:49.573Z,9.07
2023-04-17T14:25:18.732Z,9.80
2023-04-17T14:27:46.978Z,9.73
2023-04-17T14:30:15.701Z,9.07
2023-04-17T14:32:43.977Z,9.30
2023-04-17T14:35:13.260Z,8.80
2023-04-17T14:37:43.157Z,8.80
2023-04-17T14:40:12.468Z,8.63
2023-04-17T14:42:53.681Z,8.45
2023-04-17T14:45:23.096Z,8.48
2023-04-17T14:47:51.538Z,8.30
2023-04-17T14:50:20.065Z,8.15
2023-04-17T14:52:49.810Z,8.20
2023-04-17T14:55:18.182Z,8.30
2023-04-17T14:57:46.435Z,8.20
2023-04-17T15:00:15.965Z,7.53
2023-04-17T15:02:44.298Z,7.40
2023-04-17T15:05:12.725Z,7.80
2023-04-17T15:07:40.953Z,7.18
2023-04-17T15:10:11.744Z,7.47
2023-04-17T15:12:40.282Z,7.90
2023-04-17T15:15:10.005Z,7.22
2023-04-17T15:17:38.323Z,6.10
2023-04-17T15:20:07.864Z,6.80
2023-04-17T15:22:36.077Z,6.60
2023-04-17T15:25:04.675Z,6.28
2023-04-17T15:27:34.282Z,7.50
2023-04-17T15:30:04.930Z,8.10
2023-04-17T15:32:33.086Z,8.15
2023-04-17T15:35:01.261Z,8.32
2023-04-17T15:37:29.550Z,7.55
2023-04-17T15:39:57.775Z,6.03
2023-04-17T15:42:27.186Z,6.18
2023-04-17T15:44:57.591Z,6.15
2023-04-17T15:47:25.768Z,6.93
2023-04-17T15:49:54.008Z,6.47
2023-04-17T15:52:22.180Z,6.93
2023-04-17T15:54:50.319Z,6.93
2023-04-17T15:57:18.852Z,6.30
2023-04-17T15:59:47.089Z,6.80
2023-04-17T16:02:16.802Z,6.50
2023-04-17T16:04:45.222Z,6.35
2023-04-17T16:07:14.245Z,5.97
2023-04-17T16:09:46.655Z,6.28
2023-04-17T16:12:15.002Z,6.25
2023-04-17T16:14:43.271Z,6.50
2023-04-17T16:17:11.426Z,6.35
2023-04-17T16:19:41.004Z,6.68
2023-04-17T16:22:09.171Z,6.43
2023-04-17T16:24:37.315Z,6.80
2023-04-17T16:27:07.293Z,6.53
2023-04-17T16:29:35.472Z,7.25
2023-04-17T16:32:03.691Z,6.28
2023-04-17T16:34:31.888Z,6.22
2023-04-17T16:37:03.368Z,6.90
2023-04-17T16:39:31.531Z,6.63
2023-04-17T16:41:59.696Z,7.20
2023-04-17T16:44:29.198Z,6.65
2023-04-17T16:49:28.792Z,7.03
2023-04-17T16:51:56.968Z,6.60
2023-04-17T16:54:26.534Z,7.43
2023-04-17T16:56:54.707Z,6.85
2023-04-17T16:59:24.059Z,7.97
2023-04-17T17:01:52.747Z,7.00
2023-04-17T17:04:21.002Z,6.93
2023-04-17T17:06:49.214Z,6.97
2023-04-17T17:09:17.409Z,7.40
2023-04-17T17:11:47.875Z,7.55
2023-04-17T17:14:16.333Z,6.95
2023-04-17T17:16:44.553Z,7.43
2023-04-17T17:19:13.057Z,6.70
2023-04-17T17:21:41.473Z,7.25
2023-04-17T17:24:09.773Z,6.63
2023-04-17T17:26:37.923Z,6.80
2023-04-17T17:29:07.538Z,7.00
2023-04-17T17:31:35.750Z,6.13
2023-04-17T17:34:16.654Z,6.63
2023-04-17T17:36:52.067Z,6.35
2023-04-17T17:39:21.828Z,6.68
2023-04-17T17:41:51.175Z,6.00
2023-04-17T17:44:20.731Z,6.50
2023-04-17T17:46:48.893Z,6.07
2023-04-17T17:49:17.428Z,6.75
2023-04-17T17:51:45.619Z,6.75
2023-04-17T17:54:14.066Z,6.57
2023-04-17T17:56:42.455Z,7.95
2023-04-17T17:59:10.614Z,7.25
2023-04-17T18:01:40.325Z,7.97
2023-04-17T18:04:09.020Z,7.68
2023-04-17T18:06:37.322Z,7.68
2023-04-17T18:09:05.582Z,8.15
2023-04-17T18:11:33.768Z,8.15
2023-04-17T18:14:01.947Z,7.75
2023-04-17T18:16:31.604Z,7.97
2023-04-17T18:19:03.568Z,8.50
2023-04-17T18:21:31.983Z,8.40
2023-04-17T18:24:00.243Z,8.07
2023-04-17T18:26:28.617Z,7.72
2023-04-17T18:28:56.836Z,8.35
2023-04-17T18:31:26.072Z,7.88
2023-04-17T18:33:54.315Z,8.30
2023-04-17T18:36:24.119Z,8.30
2023-04-17T18:38:52.387Z,7.50
2023-04-17T18:41:21.452Z,8.35
2023-04-17T18:43:49.908Z,7.97
2023-04-17T18:46:18.264Z,8.50
2023-04-17T18:48:46.554Z,8.25
2023-04-17T18:51:15.717Z,9.07
2023-04-17T18:53:45.333Z,8.82
2023-04-17T18:56:15.003Z,8.23
2023-04-17T18:58:43.606Z,8.43
2023-04-17T19:01:11.944Z,7.65
2023-04-17T19:03:40.600Z,8.20
2023-04-17T19:06:08.772Z,8.98
2023-04-17T19:08:39.471Z,8.63
2023-04-17T19:11:09.353Z,8.43
2023-04-17T19:13:37.498Z,8.02
2023-04-17T19:16:05.787Z,7.30
2023-04-17T19:18:34.013Z,11.05
2023-04-17T19:21:02.373Z,8.43
2023-04-17T19:23:30.687Z,8.00
2023-04-17T19:25:58.868Z,9.10
2023-04-17T19:28:28.668Z,8.07
2023-04-17T19:30:57.901Z,8.80
2023-04-17T19:33:26.116Z,8.27
2023-04-17T19:35:54.278Z,8.60
2023-04-17T19:38:22.511Z,8.80
2023-04-17T19:41:14.520Z,9.02
2023-04-17T19:43:44.305Z,9.20
2023-04-17T19:46:13.395Z,8.83
2023-04-17T19:48:43.589Z,9.10
2023-04-17T19:51:12.728Z,9.00
2023-04-17T19:53:42.515Z,8.43
2023-04-17T19:56:11.308Z,9.47
2023-04-17T19:58:39.861Z,8.77
2023-04-17T20:01:09.518Z,9.00
2023-04-17T20:03:39.464Z,8.93
2023-04-17T20:06:08.333Z,8.40
2023-04-17T20:08:36.676Z,9.52
2023-04-17T20:11:06.405Z,8.67
2023-04-17T20:13:34.678Z,8.75
2023-04-17T20:16:02.828Z,9.33
2023-04-17T20:18:33.898Z,8.97
2023-04-17T20:21:02.333Z,9.60
2023-04-17T20:23:30.729Z,9.17
2023-04-17T20:25:59.226Z,9.63
2023-04-17T20:28:28.882Z,9.13
2023-04-17T20:30:57.281Z,9.43
2023-04-17T20:33:25.554Z,8.77
2023-04-17T20:35:55.131Z,9.83
2023-04-17T20:38:23.310Z,9.80
2023-04-17T20:40:51.496Z,10.07
2023-04-17T20:43:19.691Z,9.10
2023-04-17T20:45:48.434Z,10.50
2023-04-17T20:48:16.811Z,9.80
2023-04-17T20:50:45.082Z,9.70
2023-04-17T20:53:15.858Z,9.80
2023-04-17T20:55:44.051Z,10.13
2023-04-17T20:58:12.226Z,10.48
2023-04-17T21:00:53.957Z,10.50
2023-04-17T21:03:27.680Z,9.03
2023-04-17T21:05:55.925Z,10.17
2023-04-17T21:08:26.224Z,10.37
2023-04-17T21:10:54.407Z,10.23
2023-04-17T21:13:23.405Z,10.03
2023-04-17T21:15:51.616Z,10.07
2023-04-17T21:18:19.865Z,10.90
2023-04-17T21:20:48.021Z,10.85
2023-04-17T21:23:16.177Z,11.17
2023-04-17T21:25:45.707Z,10.47
2023-04-17T21:28:13.914Z,10.43
2023-04-17T21:30:42.079Z,11.40
2023-04-17T21:33:10.322Z,10.57
2023-04-17T21:35:39.472Z,11.70
2023-04-17T21:38:07.700Z,11.60
2023-04-17T21:40:37.121Z,12.20
2023-04-17T21:43:06.871Z,11.10
2023-04-17T21:45:35.081Z,11.50
2023-04-17T21:48:03.411Z,11.60
2023-04-17T21:50:31.882Z,11.37
2023-04-17T21:53:00.112Z,12.27
2023-04-17T21:55:28.514Z,11.23
2023-04-17T21:57:56.680Z,11.63
2023-04-17T22:00:26.400Z,11.77
2023-04-17T22:02:54.728Z,11.47
2023-04-17T22:05:22.978Z,11.87
2023-04-17T22:07:54.837Z,13.00
2023-04-17T22:10:24.405Z,11.57
2023-04-17T22:12:52.832Z,12.23
2023-04-17T22:15:21.020Z,11.50
2023-04-17T22:17:50.738Z,12.53
2023-04-17T22:20:19.067Z,12.07
2023-04-17T22:22:47.937Z,12.33
2023-04-17T22:25:16.108Z,12.57
2023-04-17T22:27:44.268Z,12.90
2023-04-17T22:30:12.895Z,12.67
2023-04-17T22:32:41.302Z,13.10
2023-04-17T22:35:11.280Z,12.87
2023-04-17T22:37:39.436Z,11.90
2023-04-17T22:40:09.027Z,12.13
2023-04-17T22:42:37.212Z,11.87
2023-04-17T22:45:06.233Z,12.63
2023-04-17T22:47:34.569Z,12.93
2023-04-17T22:50:04.101Z,12.67
2023-04-17T22:52:33.636Z,14.10
2023-04-17T22:55:01.837Z,12.97
2023-04-17T22:57:29.986Z,12.47
2023-04-17T22:59:58.138Z,13.53
2023-04-17T23:02:26.432Z,12.00
2023-04-17T23:04:54.723Z,12.87
2023-04-17T23:07:22.959Z,13.17
2023-04-17T23:09:52.565Z,12.43
2023-04-17T23:12:21.734Z,12.67
2023-04-17T23:14:49.983Z,12.93
2023-04-17T23:17:18.227Z,13.13
2023-04-17T23:19:46.713Z,14.03
2023-04-17T23:22:14.967Z,14.13
2023-04-17T23:24:43.162Z,14.20
2023-04-17T23:27:12.722Z,13.50
2023-04-17T23:29:40.900Z,14.47
2023-04-17T23:32:09.087Z,14.00
2023-04-17T23:34:37.644Z,13.83
2023-04-17T23:37:06.010Z,14.83
2023-04-17T23:39:34.195Z,14.60
2023-04-17T23:42:06.977Z,13.93
2023-04-17T23:44:36.683Z,13.80
2023-04-17T23:47:05.361Z,14.40
2023-04-17T23:49:34.186Z,13.63
2023-04-17T23:52:02.534Z,15.53
2023-04-17T23:54:30.726Z,14.57
2023-04-17T23:56:59.181Z,15.13
2023-04-17T23:59:27.336Z,15.03
